Gosberton, United Kingdom
Current Conditions -  °F | °C
As of 7:50 PM on Wednesday 26 Nov 2014 (Local Time) from EGXC Reporting Station
Light Rain Light Rain  
Wind Chill: 46°   Ceiling: 200
Heat Index: 46°   Visibility: 0.5mi
Dew Point: 46°   Wind: 2mph
Humidity: 100%   Direction: 40°NE
Pressure: 29.8"   Gusts: NA
Location:  52.87°N, 0.16°W
Report Text: EGXC 261950Z 04002KT 0800 -RADZ FEW001 OVC002 08/08 Q1009 AMB
Loading
Personal Weather Stations






























Interactive Weather Map New forecast layout! Learn more

10-Day Weather Forecast

Advertisements
Track Severe Weather on mobile